Time;durP1;ratioP1;P1;durP2;ratioP2;P2;SDS_P1;SDS_P2;PMS_P1;PMS_P2;Temp;Humidity;BMP_temperature;BMP_pressure;BME280_temperature;BME280_humidity;BME280_pressure;Samples;Min_cycle;Max_cycle;Signal;HPM_P1;HPM_P2
2024/03/22 00:01:57;;;;;;;5.33;3.33;;;;;;;2.48;76.04;101138.53;5025924;28;20924;-73
2024/03/22 00:04:24;;;;;;;5.17;3.20;;;;;;;2.50;75.87;101138.53;5027321;28;20458;-73
2024/03/22 00:06:50;;;;;;;5.43;3.43;;;;;;;2.52;76.04;101142.03;5025472;28;20459;-73
2024/03/22 00:09:17;;;;;;;4.07;3.03;;;;;;;2.53;75.98;101128.25;5025431;28;20478;-73
2024/03/22 00:11:44;;;;;;;5.37;3.57;;;;;;;2.54;76.08;101122.28;5027110;28;20445;-73
2024/03/22 00:14:12;;;;;;;4.43;3.33;;;;;;;2.53;75.92;101110.19;5026084;28;20509;-73
2024/03/22 00:16:38;;;;;;;4.33;3.23;;;;;;;2.55;75.92;101111.94;5024603;28;20481;-73
2024/03/22 00:19:06;;;;;;;4.30;3.47;;;;;;;2.56;76.23;101110.25;5026446;28;20470;-68
2024/03/22 00:21:32;;;;;;;5.87;4.13;;;;;;;2.59;75.82;101112.88;5026950;28;20447;-68
2024/03/22 00:24:00;;;;;;;4.33;2.90;;;;;;;2.60;76.09;101104.28;5024440;28;20458;-68
2024/03/22 00:26:26;;;;;;;5.27;3.30;;;;;;;2.60;76.11;101099.13;5025460;28;20595;-68
2024/03/22 00:28:53;;;;;;;3.20;2.83;;;;;;;2.60;76.28;101094.81;5026867;28;20453;-68
2024/03/22 00:31:19;;;;;;;5.03;3.50;;;;;;;2.62;76.06;101091.41;5025337;28;20237;-68
2024/03/22 00:33:46;;;;;;;3.97;3.13;;;;;;;2.62;75.87;101089.69;5024665;28;20473;-68
2024/03/22 00:36:13;;;;;;;4.47;3.40;;;;;;;2.64;76.21;101077.63;5024103;28;20230;-68
2024/03/22 00:38:40;;;;;;;4.50;3.17;;;;;;;2.65;76.29;101076.81;5025153;28;20452;-68
2024/03/22 00:41:06;;;;;;;3.93;3.03;;;;;;;2.66;76.15;101067.34;5026529;28;20450;-68
2024/03/22 00:43:33;;;;;;;5.27;3.20;;;;;;;2.67;76.21;101069.06;5024782;28;20814;-68
2024/03/22 00:46:00;;;;;;;5.53;3.47;;;;;;;2.67;76.29;101066.47;5024493;28;20454;-68
2024/03/22 00:48:27;;;;;;;4.20;2.77;;;;;;;2.68;76.30;101063.06;5026574;28;20463;-69
2024/03/22 00:50:53;;;;;;;4.90;3.40;;;;;;;2.68;76.02;101058.75;5025584;28;20453;-73
2024/03/22 00:53:21;;;;;;;3.30;3.00;;;;;;;2.70;76.35;101057.09;5023938;28;20801;-73
2024/03/22 00:55:50;;;;;;;3.70;2.43;;;;;;;2.68;76.33;101045.84;5024953;28;20229;-73
2024/03/22 00:58:19;;;;;;;4.00;3.00;;;;;;;2.72;76.20;101052.78;5026343;28;20486;-73
2024/03/22 01:00:45;;;;;;;4.50;2.87;;;;;;;2.73;76.36;101046.78;5024398;28;20450;-73
2024/03/22 01:03:12;;;;;;;4.53;2.77;;;;;;;2.74;76.22;101040.75;5024282;28;20821;-72
2024/03/22 01:05:38;;;;;;;4.07;2.77;;;;;;;2.74;75.83;101035.59;5026191;28;20210;-73
2024/03/22 01:08:06;;;;;;;5.13;2.90;;;;;;;2.75;76.27;101019.22;5024732;28;20460;-73
2024/03/22 01:10:33;;;;;;;4.80;2.67;;;;;;;2.76;76.29;101013.22;5023541;28;20207;-73
2024/03/22 01:13:00;;;;;;;6.07;3.37;;;;;;;2.77;76.26;101001.19;5025386;28;20453;-73
2024/03/22 01:15:26;;;;;;;3.67;2.63;;;;;;;2.78;76.24;101002.91;5025585;28;20449;-73
2024/03/22 01:17:53;;;;;;;4.87;2.50;;;;;;;2.79;76.20;100989.16;5026062;28;20901;-73
2024/03/22 01:20:20;;;;;;;4.57;2.83;;;;;;;2.81;76.15;100995.19;5022382;28;20203;-73
2024/03/22 01:22:46;;;;;;;5.00;2.87;;;;;;;2.81;76.28;100990.91;5022211;28;20931;-73
2024/03/22 01:25:12;;;;;;;3.97;2.63;;;;;;;2.82;76.06;100982.31;5027227;28;20447;-73
2024/03/22 01:27:41;;;;;;;3.13;2.67;;;;;;;2.83;76.59;100984.03;5023998;28;20454;-74
2024/03/22 01:30:08;;;;;;;6.60;3.10;;;;;;;2.83;76.23;100978.84;5027044;28;20234;-77
2024/03/22 01:32:35;;;;;;;4.33;2.70;;;;;;;2.85;76.27;100967.69;5023326;28;20456;-78
2024/03/22 01:35:01;;;;;;;4.53;2.90;;;;;;;2.87;76.32;100968.56;5023310;28;20459;-78
2024/03/22 01:37:28;;;;;;;4.23;2.77;;;;;;;2.88;76.32;100959.97;5025007;28;20492;-78
2024/03/22 01:39:54;;;;;;;3.73;2.53;;;;;;;2.88;76.47;100959.97;5025161;28;20205;-78
2024/03/22 01:42:21;;;;;;;5.47;2.60;;;;;;;2.89;76.28;100961.69;5022943;28;20965;-77
2024/03/22 01:44:49;;;;;;;4.30;2.80;;;;;;;2.89;76.46;100952.22;5024325;28;20207;-77
2024/03/22 01:47:16;;;;;;;3.33;2.60;;;;;;;2.90;76.25;100940.16;5025436;28;20455;-77
2024/03/22 01:49:42;;;;;;;3.50;2.23;;;;;;;2.91;76.34;100929.00;5023505;28;20525;-77
2024/03/22 01:52:09;;;;;;;4.27;2.50;;;;;;;2.90;76.52;100922.06;5028812;23;20450;-77
2024/03/22 01:54:35;;;;;;;5.43;2.90;;;;;;;2.91;76.51;100913.50;4994589;28;20439;-77
2024/03/22 01:57:03;;;;;;;5.40;2.70;;;;;;;2.91;76.65;100905.75;4994338;28;20487;-78
2024/03/22 01:59:30;;;;;;;3.30;2.30;;;;;;;2.92;76.40;100904.88;4994652;28;20239;-67
2024/03/22 02:01:58;;;;;;;2.83;1.93;;;;;;;2.92;76.52;100887.66;4994554;28;20438;-67
2024/03/22 02:04:24;;;;;;;4.10;2.33;;;;;;;2.92;76.29;100885.06;4994359;28;20450;-67
2024/03/22 02:06:52;;;;;;;3.33;2.17;;;;;;;2.93;76.37;100884.22;4994108;28;20447;-67
2024/03/22 02:09:18;;;;;;;4.00;2.77;;;;;;;2.93;76.35;100880.78;4994234;28;20258;-67
2024/03/22 02:11:45;;;;;;;3.97;2.40;;;;;;;2.94;76.42;100882.50;4994350;28;20444;-67
2024/03/22 02:14:10;;;;;;;3.70;2.50;;;;;;;2.94;76.54;100872.16;4994128;28;20201;-67
2024/03/22 02:16:37;;;;;;;4.53;2.50;;;;;;;2.93;76.48;100871.31;4994172;28;20493;-67
2024/03/22 02:19:05;;;;;;;3.63;2.40;;;;;;;2.93;76.49;100865.28;4994071;28;20406;-67
2024/03/22 02:21:31;;;;;;;4.47;2.73;;;;;;;2.93;76.43;100862.69;4993987;28;20447;-67
2024/03/22 02:23:59;;;;;;;5.00;2.60;;;;;;;2.94;76.58;100859.25;4993931;28;20901;-67
2024/03/22 02:26:25;;;;;;;4.33;2.23;;;;;;;2.93;76.31;100849.78;4993852;28;20453;-68
2024/03/22 02:28:51;;;;;;;4.00;2.30;;;;;;;2.93;76.44;100839.44;4993911;28;20441;-67
2024/03/22 02:31:20;;;;;;;3.73;2.23;;;;;;;2.94;76.63;100842.00;4993632;28;20467;-67
2024/03/22 02:33:45;;;;;;;4.63;2.47;;;;;;;2.94;76.53;100830.81;4993973;28;20203;-67
2024/03/22 02:36:12;;;;;;;5.03;2.10;;;;;;;2.94;76.46;100833.41;4993678;28;20557;-68
2024/03/22 02:38:38;;;;;;;3.37;2.30;;;;;;;2.94;76.62;100830.81;4993831;28;20207;-73
2024/03/22 02:41:07;;;;;;;4.30;2.30;;;;;;;2.95;76.51;100822.19;4993668;28;20989;-73
2024/03/22 02:43:32;;;;;;;3.13;2.30;;;;;;;2.95;76.43;100829.94;4993645;28;20207;-73
2024/03/22 02:45:59;;;;;;;2.97;2.00;;;;;;;2.94;76.46;100810.13;4993848;28;20432;-73
2024/03/22 02:48:25;;;;;;;3.50;2.13;;;;;;;2.95;76.42;100806.69;4993731;28;20548;-73
2024/03/22 02:50:56;;;;;;;3.33;2.40;;;;;;;2.94;76.61;100800.66;4993700;28;20457;-73
2024/03/22 02:53:22;;;;;;;3.73;2.30;;;;;;;2.94;76.32;100800.66;4993371;28;20233;-74
2024/03/22 02:55:49;;;;;;;3.00;2.20;;;;;;;2.94;76.50;100792.91;4993457;28;20489;-74
2024/03/22 02:58:18;;;;;;;3.40;2.50;;;;;;;2.94;76.38;100786.88;4992573;28;20598;-74
2024/03/22 03:00:45;;;;;;;3.37;2.37;;;;;;;2.93;76.43;100786.03;4993382;28;20497;-73
2024/03/22 03:03:11;;;;;;;3.73;2.13;;;;;;;2.93;76.58;100786.03;4993433;28;20455;-74
2024/03/22 03:05:38;;;;;;;4.03;2.40;;;;;;;2.94;76.50;100781.72;4993517;28;20449;-74
2024/03/22 03:08:04;;;;;;;3.77;2.50;;;;;;;2.94;76.35;100773.97;4989825;28;20294;-74
2024/03/22 03:10:31;;;;;;;4.00;2.30;;;;;;;2.93;76.53;100764.50;4993340;28;20495;-67
2024/03/22 03:12:57;;;;;;;3.50;2.43;;;;;;;2.94;76.48;100756.72;4993199;28;20491;-67
2024/03/22 03:15:25;;;;;;;4.10;2.40;;;;;;;2.94;76.42;100745.53;4993298;28;20831;-67
2024/03/22 03:17:51;;;;;;;3.50;2.20;;;;;;;2.95;76.51;100747.25;4992772;28;20232;-67
2024/03/22 03:20:18;;;;;;;2.20;1.97;;;;;;;2.96;76.56;100738.66;4989576;28;20939;-67
2024/03/22 03:22:44;;;;;;;2.73;2.00;;;;;;;2.94;76.39;100728.31;4992870;28;20452;-67
2024/03/22 03:25:11;;;;;;;2.67;2.20;;;;;;;2.96;76.37;100725.75;4993215;28;20446;-67
2024/03/22 03:27:37;;;;;;;2.80;2.20;;;;;;;2.95;76.45;100732.59;4993207;28;20252;-67
2024/03/22 03:30:05;;;;;;;3.57;2.00;;;;;;;2.95;76.50;100726.56;4993101;28;20883;-67
2024/03/22 03:32:32;;;;;;;3.03;2.10;;;;;;;2.96;76.59;100731.78;4993098;28;20206;-67
2024/03/22 03:34:59;;;;;;;5.00;1.93;;;;;;;2.95;76.42;100731.75;4992971;28;20494;-67
2024/03/22 03:37:25;;;;;;;3.93;2.13;;;;;;;2.95;76.42;100724.84;4992901;28;20482;-67
2024/03/22 03:39:52;;;;;;;3.17;2.00;;;;;;;2.95;76.53;100730.03;4993079;28;20456;-67
2024/03/22 03:42:18;;;;;;;3.10;1.80;;;;;;;2.96;76.51;100730.91;4992891;28;20220;-67
2024/03/22 03:44:44;;;;;;;3.37;2.40;;;;;;;2.96;76.48;100715.41;4992897;28;20449;-67
2024/03/22 03:47:10;;;;;;;2.87;2.20;;;;;;;2.95;76.52;100705.91;4992893;28;20209;-67
2024/03/22 03:49:38;;;;;;;3.43;2.27;;;;;;;2.95;76.68;100700.72;4992852;28;20448;-73
2024/03/22 03:52:05;;;;;;;2.37;1.77;;;;;;;2.95;76.68;100698.16;4992737;28;20205;-72
2024/03/22 03:54:32;;;;;;;3.23;2.17;;;;;;;2.94;76.69;100692.13;4992826;28;20453;-73
2024/03/22 03:56:57;;;;;;;2.90;2.40;;;;;;;2.95;76.61;100677.47;4992746;28;21027;-72
2024/03/22 03:59:24;;;;;;;3.07;2.20;;;;;;;2.94;76.55;100666.28;4992954;28;20456;-72
2024/03/22 04:01:50;;;;;;;3.47;2.10;;;;;;;2.93;76.78;100654.22;4992920;28;20197;-72
2024/03/22 04:04:17;;;;;;;4.20;2.43;;;;;;;2.93;76.78;100666.28;4989264;28;20823;-72
2024/03/22 04:06:45;;;;;;;2.67;2.07;;;;;;;2.94;76.89;100670.59;4992920;28;20212;-72
2024/03/22 04:09:12;;;;;;;3.27;2.43;;;;;;;2.94;76.92;100665.41;4992640;28;20884;-72
2024/03/22 04:11:38;;;;;;;2.80;1.93;;;;;;;2.95;77.12;100659.38;4992839;28;20549;-72
2024/03/22 04:14:05;;;;;;;3.83;2.17;;;;;;;2.95;76.91;100647.31;4992720;28;20824;-72
2024/03/22 04:16:31;;;;;;;2.57;1.90;;;;;;;2.93;76.92;100628.38;4989025;28;20237;-72
2024/03/22 04:18:58;;;;;;;3.63;2.10;;;;;;;2.96;77.08;100622.38;4992981;28;20811;-74
2024/03/22 04:21:24;;;;;;;3.27;2.13;;;;;;;2.97;77.33;100613.75;4992609;28;20475;-73
2024/03/22 04:23:52;;;;;;;3.60;2.10;;;;;;;2.97;76.87;100609.44;4992576;28;20476;-73
2024/03/22 04:26:18;;;;;;;4.07;2.47;;;;;;;2.97;76.84;100614.59;4992731;28;20211;-73
2024/03/22 04:28:45;;;;;;;2.63;2.13;;;;;;;2.97;76.82;100603.41;4992694;28;20841;-73
2024/03/22 04:31:11;;;;;;;2.97;2.07;;;;;;;2.97;76.89;100593.06;4996097;28;20210;-74
2024/03/22 04:33:38;;;;;;;2.60;2.00;;;;;;;2.99;76.88;100588.78;4996070;28;20452;-73
2024/03/22 04:36:05;;;;;;;2.50;2.00;;;;;;;2.96;77.01;100586.19;4996032;28;20207;-74
2024/03/22 04:38:32;;;;;;;3.17;2.47;;;;;;;2.96;76.88;100586.19;4995821;28;20517;-73
2024/03/22 04:41:01;;;;;;;3.87;2.00;;;;;;;2.98;76.86;100584.44;4992474;28;20472;-73
2024/03/22 04:43:29;;;;;;;1.90;1.70;;;;;;;2.97;77.11;100587.91;4995961;28;20461;-73
2024/03/22 04:45:54;;;;;;;3.43;1.90;;;;;;;2.98;77.21;100587.03;4995772;28;20448;-74
2024/03/22 04:48:23;;;;;;;3.50;2.50;;;;;;;2.97;77.16;100564.66;4995973;28;20452;-74
2024/03/22 04:50:50;;;;;;;2.27;1.87;;;;;;;2.98;77.35;100568.94;4995666;28;20672;-73
2024/03/22 04:53:17;;;;;;;3.00;2.37;;;;;;;2.98;77.29;100563.78;4995561;28;20578;-74
2024/03/22 04:55:44;;;;;;;2.03;1.60;;;;;;;2.98;77.30;100548.28;5013151;22;20463;-72
2024/03/22 04:58:14;;;;;;;3.50;2.10;;;;;;;3.00;77.37;100551.75;5018959;28;20487;-77
2024/03/22 05:00:41;;;;;;;4.93;2.97;;;;;;;2.99;77.29;100539.69;5023479;28;20936;-76
2024/03/22 05:03:08;;;;;;;7.97;3.50;;;;;;;2.99;77.22;100530.19;5023120;28;20449;-77
2024/03/22 05:05:34;;;;;;;8.37;4.93;;;;;;;3.00;77.51;100529.34;5022727;28;20446;-76
2024/03/22 05:08:01;;;;;;;3.10;2.43;;;;;;;3.00;77.34;100536.22;5016928;28;20442;-77
2024/03/22 05:10:28;;;;;;;2.10;1.90;;;;;;;3.00;77.23;100526.75;5014400;28;20946;-77
2024/03/22 05:12:55;;;;;;;3.27;2.43;;;;;;;3.01;77.47;100522.44;5014320;28;20545;-77
2024/03/22 05:15:23;;;;;;;3.23;1.87;;;;;;;3.00;77.56;100531.06;5014091;28;20478;-77
2024/03/22 05:17:50;;;;;;;3.17;1.80;;;;;;;3.02;77.62;100524.19;5014127;28;20481;-77
2024/03/22 05:20:16;;;;;;;2.53;1.87;;;;;;;3.01;77.88;100512.09;5014272;28;20562;-77
2024/03/22 05:22:43;;;;;;;2.80;1.90;;;;;;;3.02;77.92;100513.84;5014363;28;20500;-78
2024/03/22 05:25:09;;;;;;;3.03;2.20;;;;;;;3.01;77.73;100518.16;5013748;28;20450;-78
2024/03/22 05:27:37;;;;;;;4.53;2.40;;;;;;;3.02;77.80;100509.53;5013987;28;20816;-78
2024/03/22 05:30:04;;;;;;;3.40;1.90;;;;;;;3.03;77.92;100500.06;5013685;28;20485;-77
2024/03/22 05:32:32;;;;;;;3.17;2.33;;;;;;;3.04;77.89;100478.50;5014079;28;20977;-77
2024/03/22 05:34:58;;;;;;;2.50;1.90;;;;;;;3.04;77.87;100475.94;5014092;28;20448;-78
2024/03/22 05:37:25;;;;;;;3.20;2.07;;;;;;;3.04;77.83;100468.16;5014017;28;20476;-77
2024/03/22 05:39:51;;;;;;;3.63;2.30;;;;;;;3.05;78.01;100462.16;5013835;28;20203;-77
2024/03/22 05:42:18;;;;;;;4.70;2.20;;;;;;;3.04;77.75;100470.75;5013670;28;20446;-78
2024/03/22 05:44:44;;;;;;;3.37;1.90;;;;;;;3.05;77.88;100463.03;5013803;28;20207;-78
2024/03/22 05:47:11;;;;;;;2.50;1.80;;;;;;;3.06;77.85;100449.22;5013567;28;20460;-77
2024/03/22 05:49:38;;;;;;;2.03;1.50;;;;;;;3.08;77.79;100446.66;5013641;28;20448;-72
2024/03/22 05:52:05;;;;;;;3.20;2.10;;;;;;;3.09;77.80;100448.38;5012895;28;20523;-72
2024/03/22 05:54:31;;;;;;;4.53;1.97;;;;;;;3.10;77.88;100455.28;5012873;28;20445;-73
2024/03/22 05:56:58;;;;;;;3.90;2.00;;;;;;;3.12;77.89;100455.28;5013016;28;20486;-74
2024/03/22 05:59:24;;;;;;;4.70;3.03;;;;;;;3.12;78.08;100447.53;5013289;28;20259;-73
2024/03/22 06:01:51;;;;;;;3.80;2.50;;;;;;;3.12;77.92;100450.97;5012971;28;20563;-72
2024/03/22 06:04:17;;;;;;;3.27;2.00;;;;;;;3.13;78.02;100446.69;5012938;28;20204;-74
2024/03/22 06:06:45;;;;;;;2.80;1.83;;;;;;;3.13;78.09;100449.28;5013074;28;20797;-74
2024/03/22 06:09:13;;;;;;;2.37;2.00;;;;;;;3.14;78.11;100436.34;5013120;28;20206;-75
2024/03/22 06:11:43;;;;;;;2.80;2.10;;;;;;;3.15;78.16;100437.19;5012896;28;20447;-76
2024/03/22 06:14:09;;;;;;;3.40;2.73;;;;;;;3.16;78.30;100426.00;5012708;28;20502;-75
2024/03/22 06:16:36;;;;;;;2.90;2.13;;;;;;;3.16;78.12;100408.78;5013472;28;20457;-75
2024/03/22 06:19:04;;;;;;;3.23;2.17;;;;;;;3.17;78.23;100402.72;5014327;28;20210;-77
2024/03/22 06:21:31;;;;;;;3.93;2.20;;;;;;;3.17;78.18;100399.28;5014272;28;20896;-77
2024/03/22 06:23:58;;;;;;;2.90;2.10;;;;;;;3.19;78.22;100406.19;5013913;28;20434;-75
2024/03/22 06:26:25;;;;;;;3.93;2.77;;;;;;;3.19;78.30;100393.25;5014200;28;20968;-76
2024/03/22 06:28:51;;;;;;;3.30;2.37;;;;;;;3.20;78.24;100396.72;5014125;28;20533;-78
2024/03/22 06:31:18;;;;;;;3.30;2.30;;;;;;;3.22;78.40;100385.50;5014013;28;20527;-77
2024/03/22 06:33:44;;;;;;;3.37;2.37;;;;;;;3.24;78.59;100375.16;5014206;28;20613;-76
2024/03/22 06:36:11;;;;;;;2.67;2.20;;;;;;;3.25;78.36;100376.91;5013655;28;20450;-79
2024/03/22 06:38:38;;;;;;;2.87;2.20;;;;;;;3.25;78.30;100362.25;5013864;28;20728;-76
2024/03/22 06:41:06;;;;;;;3.07;2.40;;;;;;;3.27;78.44;100360.53;5014015;28;20994;-78
2024/03/22 06:43:32;;;;;;;3.30;2.47;;;;;;;3.27;78.34;100354.50;5013808;28;20443;-77
2024/03/22 06:45:59;;;;;;;4.80;2.53;;;;;;;3.27;78.14;100344.16;5013823;28;20456;-75
2024/03/22 06:48:25;;;;;;;2.60;2.17;;;;;;;3.27;78.04;100334.69;4998092;28;20210;-77
2024/03/22 06:50:51;;;;;;;3.73;2.50;;;;;;;3.30;78.25;100351.91;4994160;28;20820;-77
2024/03/22 06:53:17;;;;;;;3.00;2.37;;;;;;;3.31;78.31;100339.84;4993261;28;20205;-77
2024/03/22 06:55:44;;;;;;;3.13;2.40;;;;;;;3.33;78.42;100351.06;4993967;28;20458;-77
2024/03/22 06:58:11;;;;;;;5.70;2.40;;;;;;;3.35;78.47;100331.22;4994128;28;20704;-78
2024/03/22 07:00:38;;;;;;;3.03;2.40;;;;;;;3.36;78.33;100320.03;4994101;28;20813;-79
2024/03/22 07:03:05;;;;;;;2.93;2.17;;;;;;;3.35;78.41;100324.31;4994259;28;20444;-77
2024/03/22 07:05:32;;;;;;;4.13;2.33;;;;;;;3.37;78.41;100319.16;4993880;28;20797;-79
2024/03/22 07:07:58;;;;;;;2.83;2.50;;;;;;;3.37;78.24;100298.47;4994016;28;20480;-78
2024/03/22 07:10:27;;;;;;;2.97;2.57;;;;;;;3.40;78.61;100314.84;4993961;28;20804;-78
2024/03/22 07:12:54;;;;;;;3.77;2.60;;;;;;;3.41;78.21;100295.88;4994047;28;20224;-77
2024/03/22 07:15:23;;;;;;;4.03;2.20;;;;;;;3.43;78.58;100303.63;4993959;28;20436;-77
2024/03/22 07:17:49;;;;;;;2.53;2.27;;;;;;;3.44;78.52;100289.81;4992257;28;20542;-77
2024/03/22 07:20:16;;;;;;;3.10;2.23;;;;;;;3.45;78.70;100296.75;4992632;28;20502;-74
2024/03/22 07:22:42;;;;;;;4.00;2.40;;;;;;;3.49;78.31;100293.28;4992471;28;20205;-73
2024/03/22 07:25:12;;;;;;;4.07;2.90;;;;;;;3.49;78.73;100277.75;4992395;28;20473;-76
2024/03/22 07:27:38;;;;;;;1.87;1.53;;;;;;;3.50;78.50;100277.75;4993158;28;20201;-75
2024/03/22 07:30:08;;;;;;;2.87;2.30;;;;;;;3.52;78.41;100285.50;5009267;28;20932;-74
2024/03/22 07:32:35;;;;;;;3.37;2.20;;;;;;;3.53;78.40;100282.06;5012151;28;20201;-73
2024/03/22 07:35:02;;;;;;;3.50;2.27;;;;;;;3.53;78.43;100269.13;5013240;28;20524;-75
2024/03/22 07:37:28;;;;;;;3.97;2.70;;;;;;;3.55;78.64;100266.53;5012802;28;20479;-75
2024/03/22 07:39:55;;;;;;;4.00;2.60;;;;;;;3.57;78.54;100263.09;5011732;28;20453;-75
2024/03/22 07:42:21;;;;;;;3.97;2.70;;;;;;;3.57;78.64;100257.91;5012420;28;20200;-75
2024/03/22 07:44:48;;;;;;;2.97;2.20;;;;;;;3.60;78.67;100260.47;5012978;28;20443;-74
2024/03/22 07:47:14;;;;;;;3.70;2.27;;;;;;;3.62;78.66;100253.59;5013013;28;20453;-74
2024/03/22 07:49:43;;;;;;;4.37;2.47;;;;;;;3.64;78.67;100257.03;5012016;28;20819;-75
2024/03/22 07:52:09;;;;;;;3.40;2.40;;;;;;;3.66;78.63;100255.28;5012858;28;20201;-73
2024/03/22 07:54:35;;;;;;;3.30;2.37;;;;;;;3.67;78.79;100262.22;5012816;28;20453;-73
2024/03/22 07:57:02;;;;;;;2.73;2.13;;;;;;;3.69;78.79;100254.44;5011980;28;20224;-75
2024/03/22 07:59:29;;;;;;;4.27;2.33;;;;;;;3.70;78.80;100243.22;5012870;28;20450;-73
2024/03/22 08:01:55;;;;;;;3.37;2.33;;;;;;;3.72;78.74;100247.53;5011388;28;20945;-74
2024/03/22 08:04:22;;;;;;;2.57;2.00;;;;;;;3.75;78.69;100233.69;5013591;28;20447;-73
2024/03/22 08:06:50;;;;;;;3.60;2.60;;;;;;;3.76;78.68;100238.03;5003245;28;20688;-73
2024/03/22 08:09:18;;;;;;;4.03;2.70;;;;;;;3.77;78.33;100231.13;4995494;28;20566;-74
2024/03/22 08:11:44;;;;;;;6.47;2.40;;;;;;;3.74;78.80;100212.16;4996441;28;20471;-74
2024/03/22 08:14:11;;;;;;;3.80;2.40;;;;;;;3.79;78.64;100209.56;4996880;28;20943;-73
2024/03/22 08:16:36;;;;;;;3.13;2.30;;;;;;;3.82;78.57;100221.63;5006124;28;20203;-73
2024/03/22 08:19:03;;;;;;;5.70;2.20;;;;;;;3.83;78.87;100210.41;5015428;28;20479;-74
2024/03/22 08:21:29;;;;;;;3.77;2.27;;;;;;;3.84;78.74;100218.16;5016233;28;20199;-74
2024/03/22 08:23:58;;;;;;;2.47;2.20;;;;;;;3.86;78.91;100210.38;5016201;28;20454;-74
2024/03/22 08:26:23;;;;;;;3.40;2.40;;;;;;;3.87;78.87;100192.28;5016084;28;20283;-74
2024/03/22 08:28:50;;;;;;;2.40;2.20;;;;;;;3.88;78.88;100188.81;5016308;28;20534;-75
2024/03/22 08:31:17;;;;;;;3.57;2.50;;;;;;;3.90;78.92;100191.41;5016549;28;20192;-78
2024/03/22 08:33:44;;;;;;;3.13;2.13;;;;;;;3.92;78.85;100189.66;5016804;28;20440;-78
2024/03/22 08:36:09;;;;;;;2.77;2.30;;;;;;;3.93;78.78;100186.22;5016380;28;20518;-79
2024/03/22 08:38:37;;;;;;;3.40;1.90;;;;;;;3.94;78.80;100182.75;5015408;28;20483;-77
2024/03/22 08:41:04;;;;;;;2.87;1.97;;;;;;;3.96;78.60;100179.28;5015010;28;20208;-79
2024/03/22 08:43:31;;;;;;;3.47;1.97;;;;;;;3.98;78.71;100179.28;5014549;28;21029;-77
2024/03/22 08:45:57;;;;;;;3.10;1.90;;;;;;;3.98;79.07;100174.13;5014741;28;20454;-78
2024/03/22 08:48:24;;;;;;;2.47;1.97;;;;;;;3.99;78.76;100157.69;5016298;28;20448;-76
2024/03/22 08:50:50;;;;;;;2.10;1.70;;;;;;;4.02;79.03;100155.09;5016358;28;20450;-77
2024/03/22 08:53:17;;;;;;;3.27;2.13;;;;;;;4.03;78.75;100149.03;5015744;28;20444;-80
2024/03/22 08:55:46;;;;;;;2.83;2.10;;;;;;;4.06;79.01;100135.22;5014769;28;20670;-75
2024/03/22 08:58:17;;;;;;;2.43;1.90;;;;;;;4.07;79.00;100136.97;5014702;28;20479;-78
2024/03/22 09:00:43;;;;;;;2.00;1.73;;;;;;;4.08;78.76;100129.16;5014616;28;20454;-78
2024/03/22 09:03:10;;;;;;;3.80;2.00;;;;;;;4.09;78.71;100122.25;5015023;28;20479;-76
2024/03/22 09:05:36;;;;;;;2.50;2.03;;;;;;;4.11;78.82;100113.59;5014903;28;20450;-77
2024/03/22 09:08:04;;;;;;;2.93;2.20;;;;;;;4.13;78.97;100116.19;5016356;28;20267;-76
2024/03/22 09:10:30;;;;;;;4.77;2.33;;;;;;;4.14;79.16;100115.31;5014462;28;20197;-78
2024/03/22 09:12:57;;;;;;;2.77;1.87;;;;;;;4.15;79.00;100104.09;5014850;28;20447;-76
2024/03/22 09:15:24;;;;;;;2.93;1.87;;;;;;;4.17;79.22;100103.22;5014427;28;20199;-77
2024/03/22 09:17:52;;;;;;;2.43;2.13;;;;;;;4.19;79.18;100104.06;5014443;28;20516;-78
2024/03/22 09:20:18;;;;;;;2.30;1.90;;;;;;;4.22;79.40;100094.56;5014586;28;20458;-77
2024/03/22 09:22:45;;;;;;;2.27;1.77;;;;;;;4.23;79.23;100084.19;5014674;28;20436;-78
2024/03/22 09:25:11;;;;;;;3.37;1.87;;;;;;;4.26;79.19;100075.53;5014716;28;20658;-77
2024/03/22 09:27:38;;;;;;;1.87;1.67;;;;;;;4.28;79.18;100073.78;5014316;28;20451;-78
2024/03/22 09:30:05;;;;;;;2.80;1.90;;;;;;;4.30;79.51;100067.72;5014741;28;20201;-75
2024/03/22 09:32:34;;;;;;;2.20;2.00;;;;;;;4.32;79.36;100070.28;5015323;28;20439;-76
2024/03/22 09:34:59;;;;;;;3.27;1.70;;;;;;;4.34;79.63;100063.38;5015556;28;20538;-77
2024/03/22 09:37:26;;;;;;;2.13;1.90;;;;;;;4.34;79.57;100058.19;5015364;28;20457;-79
2024/03/22 09:39:52;;;;;;;3.03;1.90;;;;;;;4.39;79.91;100061.63;5013839;28;20203;-72
2024/03/22 09:42:19;;;;;;;1.90;1.70;;;;;;;4.41;79.84;100052.13;5013330;28;20443;-73
2024/03/22 09:44:48;;;;;;;2.93;2.03;;;;;;;4.43;79.87;100050.34;5013142;28;20287;-73
2024/03/22 09:47:16;;;;;;;2.30;1.60;;;;;;;4.45;79.87;100053.78;5013914;28;20205;-74
2024/03/22 09:49:46;;;;;;;3.23;1.93;;;;;;;4.48;79.43;100052.91;5013605;28;20443;-77
2024/03/22 09:52:14;;;;;;;3.20;1.90;;;;;;;4.50;79.82;100049.44;5013203;28;20212;-77
2024/03/22 09:54:41;;;;;;;2.17;1.80;;;;;;;4.52;79.58;100052.88;5013114;28;20451;-77
2024/03/22 09:57:12;;;;;;;1.93;1.63;;;;;;;4.54;79.50;100056.28;5013092;28;20460;-76
2024/03/22 09:59:38;;;;;;;1.70;1.60;;;;;;;4.57;79.56;100047.63;5013825;28;20240;-78
2024/03/22 10:02:08;;;;;;;1.90;1.63;;;;;;;4.59;79.56;100049.34;5014909;28;20212;-78
2024/03/22 10:04:35;;;;;;;2.27;1.90;;;;;;;4.60;79.38;100038.09;5014635;28;20430;-78
2024/03/22 10:07:05;;;;;;;2.20;1.80;;;;;;;4.63;79.37;100032.91;5014918;28;20254;-78
2024/03/22 10:09:31;;;;;;;3.37;1.73;;;;;;;4.64;79.27;100047.56;5014700;28;20208;-78
2024/03/22 10:11:58;;;;;;;2.57;2.10;;;;;;;4.66;79.40;100028.53;5014539;28;20459;-78
2024/03/22 10:14:25;;;;;;;1.93;1.77;;;;;;;4.69;79.14;100028.50;5014537;28;20192;-78
2024/03/22 10:16:54;;;;;;;2.40;1.90;;;;;;;4.70;79.32;100025.06;5014363;28;20460;-78
2024/03/22 10:19:20;;;;;;;4.13;2.27;;;;;;;4.71;79.24;100019.00;5012989;28;20220;-78
2024/03/22 10:21:48;;;;;;;2.60;2.23;;;;;;;4.73;79.07;100017.25;5013805;28;20696;-79
2024/03/22 10:24:15;;;;;;;4.40;2.80;;;;;;;4.73;78.88;100009.47;5012845;28;20588;-76
2024/03/22 10:26:42;;;;;;;2.93;2.10;;;;;;;4.76;79.19;100005.09;5012156;28;20209;-79
2024/03/22 10:29:09;;;;;;;3.03;2.30;;;;;;;4.77;79.35;100008.56;5012950;28;20632;-78
2024/03/22 10:31:36;;;;;;;4.47;2.97;;;;;;;4.78;79.07;100013.72;5013532;28;20270;-76
2024/03/22 10:34:04;;;;;;;3.70;2.70;;;;;;;4.80;79.29;100000.75;5014074;28;20196;-77
2024/03/22 10:36:31;;;;;;;3.77;2.60;;;;;;;4.81;79.05;99997.28;5013297;28;20200;-76
2024/03/22 10:38:58;;;;;;;4.07;2.77;;;;;;;4.83;79.08;100000.69;5012768;28;20216;-77
2024/03/22 10:41:27;;;;;;;5.50;3.27;;;;;;;4.83;79.27;100000.69;5013911;28;20200;-78
2024/03/22 10:43:53;;;;;;;5.40;3.30;;;;;;;4.83;78.99;99986.03;5013084;28;20203;-76
2024/03/22 10:46:21;;;;;;;5.40;3.17;;;;;;;4.85;79.18;99979.06;5012824;28;20193;-78
2024/03/22 10:48:48;;;;;;;6.37;3.20;;;;;;;4.86;79.16;99978.22;5014049;28;20563;-77
2024/03/22 10:51:17;;;;;;;4.60;3.27;;;;;;;4.89;79.24;99969.56;5013701;28;20734;-75
2024/03/22 10:53:44;;;;;;;5.40;3.73;;;;;;;4.91;79.20;99961.75;5013451;28;20200;-75
2024/03/22 10:56:12;;;;;;;5.23;3.40;;;;;;;4.93;79.21;99965.19;5012264;28;20991;-74
2024/03/22 10:58:43;;;;;;;7.73;3.90;;;;;;;4.94;79.06;99961.72;5011954;28;20311;-74
2024/03/22 11:01:23;;;;;;;6.37;3.63;;;;;;;4.96;78.97;99965.19;5012376;28;20971;-76
2024/03/22 11:03:49;;;;;;;6.10;3.47;;;;;;;4.95;79.38;99953.06;5012455;28;20869;-77
2024/03/22 11:06:20;;;;;;;5.13;3.47;;;;;;;4.98;79.22;99953.06;5012475;28;20262;-77
2024/03/22 11:08:50;;;;;;;7.70;4.17;;;;;;;4.97;78.90;99933.19;5013831;28;20254;-77
2024/03/22 11:11:19;;;;;;;6.87;3.60;;;;;;;5.00;78.95;99946.94;5013833;28;20288;-74
2024/03/22 11:13:47;;;;;;;6.77;4.43;;;;;;;5.02;79.17;99944.34;5013463;28;20661;-76
2024/03/22 11:16:15;;;;;;;6.33;3.73;;;;;;;5.02;79.24;99932.25;5013549;28;20207;-77
2024/03/22 11:18:41;;;;;;;7.73;4.60;;;;;;;5.03;79.22;99935.69;5013729;28;20216;-76
2024/03/22 11:21:08;;;;;;;6.67;3.80;;;;;;;5.01;79.22;99925.34;5013670;28;20203;-77
2024/03/22 11:23:36;;;;;;;6.80;4.00;;;;;;;5.05;79.34;99929.59;5013229;28;20628;-78
2024/03/22 11:26:07;;;;;;;7.17;4.33;;;;;;;5.07;79.42;99927.84;5020467;28;20224;-75
2024/03/22 11:28:33;;;;;;;6.63;4.23;;;;;;;5.08;78.97;99923.53;5015843;28;20197;-76
2024/03/22 11:31:02;;;;;;;8.83;4.03;;;;;;;5.09;79.13;99917.47;5013740;28;20215;-77
2024/03/22 11:33:29;;;;;;;8.90;4.43;;;;;;;5.11;79.08;99917.44;5013137;28;20207;-77